Time;durP1;ratioP1;P1;durP2;ratioP2;P2;SDS_P1;SDS_P2;PMS_P1;PMS_P2;Temp;Humidity;BMP_temperature;BMP_pressure;BME280_temperature;BME280_humidity;BME280_pressure;Samples;Min_cycle;Max_cycle;Signal;HPM_P1;HPM_P2
2024/04/16 00:01:51;;;;;;;;;;;14.00;89.10;;;;;;5405855;26;20468;-53
2024/04/16 00:04:17;;;;;;;;;;;14.00;89.00;;;;;;5422474;26;20360;-53
2024/04/16 00:06:42;;;;;;;;;;;14.00;89.00;;;;;;5422122;26;20349;-53
2024/04/16 00:09:08;;;;;;;;;;;14.00;89.10;;;;;;5420763;26;19979;-53
2024/04/16 00:11:34;;;;;;;;;;;14.00;89.20;;;;;;5416536;26;20408;-49
2024/04/16 00:13:59;;;;;;;;;;;13.90;89.50;;;;;;5422326;26;19940;-49
2024/04/16 00:16:25;;;;;;;;;;;13.90;89.40;;;;;;5420309;26;20268;-50
2024/04/16 00:18:50;;;;;;;;;;;13.90;89.60;;;;;;5452475;26;20256;-49
2024/04/16 00:21:16;;;;;;;;;;;13.90;89.50;;;;;;5445109;26;20285;-50
2024/04/16 00:23:41;;;;;;;;;;;13.90;89.60;;;;;;5430447;26;20002;-48
2024/04/16 00:26:07;;;;;;;;;;;13.90;89.60;;;;;;5441346;26;20269;-49
2024/04/16 00:28:32;;;;;;;;;;;13.90;89.60;;;;;;5450639;26;19929;-49
2024/04/16 00:30:58;;;;;;;;;;;13.90;89.80;;;;;;5443765;26;20375;-49
2024/04/16 00:33:23;;;;;;;;;;;13.90;89.50;;;;;;5450539;26;19928;-51
2024/04/16 00:35:49;;;;;;;;;;;13.80;89.50;;;;;;5424117;26;20360;-49
2024/04/16 00:38:14;;;;;;;;;;;13.80;89.70;;;;;;5406038;26;20272;-49
2024/04/16 00:40:40;;;;;;;;;;;13.80;89.50;;;;;;5411373;26;20395;-49
2024/04/16 00:43:18;;;;;;;;;;;13.80;89.70;;;;;;5413816;26;19928;-48
2024/04/16 00:45:51;;;;;;;;;;;13.80;89.90;;;;;;5437891;26;19928;-48
2024/04/16 00:48:18;;;;;;;;;;;13.80;90.00;;;;;;5409386;26;19973;-49
2024/04/16 00:50:45;;;;;;;;;;;13.80;90.00;;;;;;5429410;26;20405;-49
2024/04/16 00:53:11;;;;;;;;;;;13.80;90.00;;;;;;5407722;26;19939;-49
2024/04/16 00:55:36;;;;;;;;;;;13.80;89.80;;;;;;5439909;26;19932;-51
2024/04/16 00:58:02;;;;;;;;;;;13.80;90.10;;;;;;5430916;26;20301;-50
2024/04/16 01:00:28;;;;;;;;;;;13.80;90.00;;;;;;5438504;26;20697;-48
2024/04/16 01:02:53;;;;;;;;;;;13.80;90.00;;;;;;5429615;26;19929;-49
2024/04/16 01:05:19;;;;;;;;;;;13.80;90.00;;;;;;5433394;26;20303;-51
2024/04/16 01:07:44;;;;;;;;;;;13.80;90.10;;;;;;5419566;26;19935;-51
2024/04/16 01:10:10;;;;;;;;;;;13.80;90.00;;;;;;5425663;26;19952;-50
2024/04/16 01:12:42;;;;;;;;;;;13.80;90.00;;;;;;5411355;26;19929;-49
2024/04/16 01:15:07;;;;;;;;;;;13.80;90.10;;;;;;5410175;26;19970;-52
2024/04/16 01:17:33;;;;;;;;;;;13.80;90.00;;;;;;5424419;26;20359;-51
2024/04/16 01:19:59;;;;;;;;;;;13.80;90.10;;;;;;5425325;26;19940;-49
2024/04/16 01:22:24;;;;;;;;;;;13.80;90.10;;;;;;5423567;26;19929;-49
2024/04/16 01:24:50;;;;;;;;;;;13.70;90.10;;;;;;5426559;26;19939;-49
2024/04/16 01:27:15;;;;;;;;;;;13.70;90.10;;;;;;5423851;26;19929;-48
2024/04/16 01:29:41;;;;;;;;;;;13.70;90.10;;;;;;5411554;26;19999;-48
2024/04/16 01:32:07;;;;;;;;;;;13.70;90.10;;;;;;5420343;26;20559;-48
2024/04/16 01:34:32;;;;;;;;;;;13.70;90.10;;;;;;5421405;26;20005;-49
2024/04/16 01:36:58;;;;;;;;;;;13.70;90.10;;;;;;5422297;26;19929;-50
2024/04/16 01:39:25;;;;;;;;;;;13.70;90.20;;;;;;5416524;26;20450;-49
2024/04/16 01:41:50;;;;;;;;;;;13.70;90.20;;;;;;5421046;26;20316;-49
2024/04/16 01:44:16;;;;;;;;;;;13.70;90.30;;;;;;5420942;26;19937;-48
2024/04/16 01:46:41;;;;;;;;;;;13.70;90.30;;;;;;5419792;26;19998;-48
2024/04/16 01:49:07;;;;;;;;;;;13.70;90.30;;;;;;5439450;26;20681;-49
2024/04/16 01:51:32;;;;;;;;;;;13.70;90.40;;;;;;5454212;26;19936;-48
2024/04/16 01:53:58;;;;;;;;;;;13.70;90.40;;;;;;5453893;26;19997;-48
2024/04/16 01:56:23;;;;;;;;;;;13.70;90.40;;;;;;5439466;26;19929;-48
2024/04/16 01:58:49;;;;;;;;;;;13.70;90.40;;;;;;5449400;26;19929;-50
2024/04/16 02:01:14;;;;;;;;;;;13.70;90.40;;;;;;5453750;26;19930;-48
2024/04/16 02:03:40;;;;;;;;;;;13.70;90.40;;;;;;5451273;26;19928;-48
2024/04/16 02:06:06;;;;;;;;;;;13.70;90.50;;;;;;5453087;26;19936;-48
2024/04/16 02:08:32;;;;;;;;;;;13.70;90.50;;;;;;5450900;26;19936;-49
2024/04/16 02:10:57;;;;;;;;;;;13.70;90.60;;;;;;5451846;26;19997;-48
2024/04/16 02:13:24;;;;;;;;;;;13.60;90.60;;;;;;5430648;26;19955;-48
2024/04/16 02:15:51;;;;;;;;;;;13.60;90.60;;;;;;5451523;26;20392;-49
2024/04/16 02:18:16;;;;;;;;;;;13.60;90.70;;;;;;5452291;26;19932;-48
2024/04/16 02:20:42;;;;;;;;;;;13.60;90.70;;;;;;5426123;26;20003;-48
2024/04/16 02:23:08;;;;;;;;;;;13.60;90.70;;;;;;5427519;26;19928;-49
2024/04/16 02:25:33;;;;;;;;;;;13.70;90.70;;;;;;5454863;26;20360;-49
2024/04/16 02:27:59;;;;;;;;;;;13.60;90.70;;;;;;5425051;26;19933;-48
2024/04/16 02:30:24;;;;;;;;;;;13.60;91.20;;;;;;5420415;26;19929;-48
2024/04/16 02:32:50;;;;;;;;;;;13.60;90.80;;;;;;5449418;26;19928;-48
2024/04/16 02:35:15;;;;;;;;;;;13.60;90.70;;;;;;5439387;26;20360;-49
2024/04/16 02:37:41;;;;;;;;;;;13.60;90.80;;;;;;5424742;26;20404;-48
2024/04/16 02:40:07;;;;;;;;;;;13.60;90.80;;;;;;5439105;26;19928;-52
2024/04/16 02:42:33;;;;;;;;;;;13.60;90.80;;;;;;5446086;26;19944;-49
2024/04/16 02:44:58;;;;;;;;;;;13.60;90.70;;;;;;5439660;26;19929;-50
2024/04/16 02:47:24;;;;;;;;;;;13.60;90.80;;;;;;5447828;26;19936;-49
2024/04/16 02:49:50;;;;;;;;;;;13.60;90.80;;;;;;5429695;26;19936;-49
2024/04/16 02:52:15;;;;;;;;;;;13.60;90.80;;;;;;5451333;26;19928;-49
2024/04/16 02:54:41;;;;;;;;;;;13.50;90.80;;;;;;5447888;26;19998;-48
2024/04/16 02:57:06;;;;;;;;;;;13.60;90.80;;;;;;5443599;26;19998;-48
2024/04/16 02:59:32;;;;;;;;;;;13.60;90.90;;;;;;5438813;26;19929;-48
2024/04/16 03:01:57;;;;;;;;;;;13.60;91.30;;;;;;5447104;26;19929;-48
2024/04/16 03:04:23;;;;;;;;;;;13.50;90.80;;;;;;5443008;26;19935;-49
2024/04/16 03:06:48;;;;;;;;;;;13.50;90.80;;;;;;5445096;26;19937;-51
2024/04/16 03:09:14;;;;;;;;;;;13.50;90.70;;;;;;5420474;26;19935;-48
2024/04/16 03:11:39;;;;;;;;;;;13.50;90.80;;;;;;5419628;26;19935;-52
2024/04/16 03:14:05;;;;;;;;;;;13.50;90.80;;;;;;5422857;26;19937;-49
2024/04/16 03:16:30;;;;;;;;;;;13.50;90.80;;;;;;5437662;26;20257;-49
2024/04/16 03:18:56;;;;;;;;;;;13.50;90.80;;;;;;5434218;26;20011;-50
2024/04/16 03:21:21;;;;;;;;;;;13.50;90.80;;;;;;5435489;26;20259;-49
2024/04/16 03:23:48;;;;;;;;;;;13.40;90.70;;;;;;5431946;26;19957;-49
2024/04/16 03:26:13;;;;;;;;;;;13.40;90.70;;;;;;5436231;26;20288;-48
2024/04/16 03:28:39;;;;;;;;;;;13.40;90.60;;;;;;5429453;26;19986;-50
2024/04/16 03:31:04;;;;;;;;;;;13.40;90.60;;;;;;5433983;26;19997;-49
2024/04/16 03:33:32;;;;;;;;;;;13.40;90.60;;;;;;5428394;26;19941;-50
2024/04/16 03:35:57;;;;;;;;;;;13.30;90.60;;;;;;5435128;26;19945;-50
2024/04/16 03:38:23;;;;;;;;;;;13.30;90.60;;;;;;5424545;26;20280;-50
2024/04/16 03:40:58;;;;;;;;;;;13.30;90.60;;;;;;5427988;26;19975;-49
2024/04/16 03:43:24;;;;;;;;;;;13.30;90.70;;;;;;5428101;26;20268;-50
2024/04/16 03:45:53;;;;;;;;;;;13.30;90.60;;;;;;5433308;26;19929;-48
2024/04/16 03:48:20;;;;;;;;;;;13.30;90.70;;;;;;5427598;26;19937;-48
2024/04/16 03:50:46;;;;;;;;;;;13.30;90.80;;;;;;5430523;26;19935;-48
2024/04/16 03:53:11;;;;;;;;;;;13.30;90.80;;;;;;5427045;26;19929;-48
2024/04/16 03:55:37;;;;;;;;;;;13.30;90.80;;;;;;5425965;26;19929;-48
2024/04/16 03:58:02;;;;;;;;;;;13.30;90.90;;;;;;5426035;26;19929;-48
2024/04/16 04:03:26;;;;;;;;;;;13.20;90.90;;;;;;5364342;26;19928;-48
2024/04/16 04:05:52;;;;;;;;;;;13.20;90.90;;;;;;5419859;26;19965;-49
2024/04/16 04:08:18;;;;;;;;;;;13.20;90.90;;;;;;5407464;26;19936;-48
2024/04/16 04:10:43;;;;;;;;;;;13.20;90.90;;;;;;5418253;26;19935;-49
2024/04/16 04:13:09;;;;;;;;;;;13.20;90.80;;;;;;5401599;26;19962;-49
2024/04/16 04:15:37;;;;;;;;;;;13.20;90.80;;;;;;5439602;26;19957;-48
2024/04/16 04:18:03;;;;;;;;;;;13.20;90.80;;;;;;5416553;26;19945;-48
2024/04/16 04:20:28;;;;;;;;;;;13.20;90.90;;;;;;5439956;26;19939;-48
2024/04/16 04:22:54;;;;;;;;;;;13.10;90.80;;;;;;5428142;26;19964;-48
2024/04/16 04:25:20;;;;;;;;;;;13.10;90.90;;;;;;5425577;26;19936;-48
2024/04/16 04:27:45;;;;;;;;;;;13.10;90.80;;;;;;5432070;26;19929;-48
2024/04/16 04:30:11;;;;;;;;;;;13.10;90.90;;;;;;5438050;26;19936;-48
2024/04/16 04:32:36;;;;;;;;;;;13.10;90.80;;;;;;5430651;26;19957;-48
2024/04/16 04:35:02;;;;;;;;;;;13.10;90.80;;;;;;5398063;26;19936;-48
2024/04/16 04:37:28;;;;;;;;;;;13.10;90.80;;;;;;5427042;26;19933;-48
2024/04/16 04:39:53;;;;;;;;;;;13.10;90.80;;;;;;5415744;26;19929;-48
2024/04/16 04:42:19;;;;;;;;;;;13.10;90.90;;;;;;5391225;26;19930;-48
2024/04/16 04:44:45;;;;;;;;;;;13.10;90.90;;;;;;5436376;26;19940;-50
2024/04/16 04:47:11;;;;;;;;;;;13.10;91.00;;;;;;5443907;26;19941;-48
2024/04/16 04:49:37;;;;;;;;;;;13.10;91.00;;;;;;5419373;26;19933;-48
2024/04/16 04:52:02;;;;;;;;;;;13.10;91.00;;;;;;5427742;26;19988;-48
2024/04/16 04:54:28;;;;;;;;;;;13.10;91.10;;;;;;5418671;26;19992;-48
2024/04/16 04:56:53;;;;;;;;;;;13.10;91.00;;;;;;5417163;26;19935;-49
2024/04/16 04:59:19;;;;;;;;;;;13.10;91.00;;;;;;5419298;26;20730;-49
2024/04/16 05:01:44;;;;;;;;;;;13.10;91.00;;;;;;5414788;26;19943;-48
2024/04/16 05:04:10;;;;;;;;;;;13.10;91.00;;;;;;5417979;26;19980;-49
2024/04/16 05:06:37;;;;;;;;;;;13.10;91.00;;;;;;5422327;26;19941;-50
2024/04/16 05:09:03;;;;;;;;;;;13.00;90.90;;;;;;5426813;26;20280;-50
2024/04/16 05:11:28;;;;;;;;;;;13.10;90.90;;;;;;5416811;26;19940;-50
2024/04/16 05:13:54;;;;;;;;;;;13.10;90.90;;;;;;5433668;26;19940;-52
2024/04/16 05:16:19;;;;;;;;;;;13.10;91.00;;;;;;5416748;26;20249;-48
2024/04/16 05:18:45;;;;;;;;;;;13.10;91.00;;;;;;5410276;26;20291;-50
2024/04/16 05:21:11;;;;;;;;;;;13.10;91.00;;;;;;5408544;26;19929;-48
2024/04/16 05:23:37;;;;;;;;;;;13.00;91.00;;;;;;5426294;26;19928;-53
2024/04/16 05:26:03;;;;;;;;;;;13.00;91.10;;;;;;5441479;26;19958;-52
2024/04/16 05:28:29;;;;;;;;;;;13.00;91.10;;;;;;5435695;26;19928;-50
2024/04/16 05:30:54;;;;;;;;;;;13.00;91.10;;;;;;5439977;26;19979;-53
2024/04/16 05:33:20;;;;;;;;;;;13.00;91.10;;;;;;5433462;26;19933;-48
2024/04/16 05:35:45;;;;;;;;;;;13.00;91.10;;;;;;5431649;26;19929;-51
2024/04/16 05:38:11;;;;;;;;;;;13.00;91.10;;;;;;5423713;26;19929;-49
2024/04/16 05:40:36;;;;;;;;;;;13.00;91.20;;;;;;5411197;26;19941;-52
2024/04/16 05:43:02;;;;;;;;;;;13.10;91.20;;;;;;5417478;26;19936;-48
2024/04/16 05:45:28;;;;;;;;;;;13.00;91.20;;;;;;5413211;26;19941;-52
2024/04/16 05:47:54;;;;;;;;;;;13.10;91.30;;;;;;5412580;26;20371;-50
2024/04/16 05:50:19;;;;;;;;;;;13.10;91.30;;;;;;5418784;26;19929;-52
2024/04/16 05:52:45;;;;;;;;;;;13.10;91.40;;;;;;5418442;26;20259;-49
2024/04/16 05:55:10;;;;;;;;;;;13.10;91.40;;;;;;5417312;26;20284;-50
2024/04/16 05:57:36;;;;;;;;;;;13.10;91.40;;;;;;5416390;26;19940;-49
2024/04/16 06:00:01;;;;;;;;;;;13.10;91.40;;;;;;5417800;26;19933;-52
2024/04/16 06:02:27;;;;;;;;;;;13.10;91.40;;;;;;5418122;26;19928;-52
2024/04/16 06:04:52;;;;;;;;;;;13.10;91.40;;;;;;5416485;26;19965;-52
2024/04/16 06:07:19;;;;;;;;;;;13.10;91.40;;;;;;5417860;26;19941;-50
2024/04/16 06:09:45;;;;;;;;;;;13.10;91.50;;;;;;5420644;26;19940;-48
2024/04/16 06:12:10;;;;;;;;;;;13.10;91.60;;;;;;5419150;26;19935;-48
2024/04/16 06:14:36;;;;;;;;;;;13.10;91.60;;;;;;5411580;26;19937;-48
2024/04/16 06:17:01;;;;;;;;;;;13.10;91.80;;;;;;5408865;26;19929;-49
2024/04/16 06:19:27;;;;;;;;;;;13.10;91.80;;;;;;5403745;26;19936;-48
2024/04/16 06:21:52;;;;;;;;;;;13.10;91.90;;;;;;5419239;26;19941;-48
2024/04/16 06:24:18;;;;;;;;;;;13.10;91.90;;;;;;5419415;26;19945;-49
2024/04/16 06:26:43;;;;;;;;;;;13.10;92.00;;;;;;5437021;26;19935;-50
2024/04/16 06:29:09;;;;;;;;;;;13.10;92.00;;;;;;5437326;26;20045;-50
2024/04/16 06:31:34;;;;;;;;;;;13.00;92.00;;;;;;5421288;26;19961;-49
2024/04/16 06:34:00;;;;;;;;;;;13.10;92.00;;;;;;5437266;26;19929;-50
2024/04/16 06:36:25;;;;;;;;;;;13.10;92.10;;;;;;5433581;26;20041;-48
2024/04/16 06:38:51;;;;;;;;;;;13.10;92.30;;;;;;5436263;26;19933;-47
2024/04/16 06:41:17;;;;;;;;;;;13.00;92.20;;;;;;5436875;26;19933;-51
2024/04/16 06:43:42;;;;;;;;;;;13.10;92.20;;;;;;5445667;26;19936;-48
2024/04/16 06:46:08;;;;;;;;;;;13.10;92.20;;;;;;5424846;26;19929;-48
2024/04/16 06:48:33;;;;;;;;;;;13.10;92.30;;;;;;5415491;26;19945;-48
2024/04/16 06:50:59;;;;;;;;;;;13.10;92.30;;;;;;5422490;26;19940;-48
2024/04/16 06:53:25;;;;;;;;;;;13.10;92.40;;;;;;5422188;26;19938;-48
2024/04/16 06:55:59;;;;;;;;;;;13.10;92.40;;;;;;5416085;26;19929;-48
2024/04/16 06:58:24;;;;;;;;;;;13.10;92.30;;;;;;5409987;26;19930;-48
2024/04/16 07:00:50;;;;;;;;;;;13.10;92.30;;;;;;5388517;26;19997;-48
2024/04/16 07:03:15;;;;;;;;;;;13.10;92.40;;;;;;5397075;26;19936;-48
2024/04/16 07:05:41;;;;;;;;;;;13.20;92.40;;;;;;5435197;26;19936;-48
2024/04/16 07:08:06;;;;;;;;;;;13.20;92.50;;;;;;5423534;26;19937;-48
2024/04/16 07:10:32;;;;;;;;;;;13.20;92.40;;;;;;5402320;26;19998;-50
2024/04/16 07:12:57;;;;;;;;;;;13.20;92.40;;;;;;5426510;26;19961;-48
2024/04/16 07:15:23;;;;;;;;;;;13.20;92.50;;;;;;5437978;26;19937;-48
2024/04/16 07:17:49;;;;;;;;;;;13.20;92.50;;;;;;5428649;26;19928;-48
2024/04/16 07:20:14;;;;;;;;;;;13.20;92.50;;;;;;5404641;26;19935;-52
2024/04/16 07:22:40;;;;;;;;;;;13.20;92.50;;;;;;5425761;26;20015;-52
2024/04/16 07:25:06;;;;;;;;;;;13.20;92.90;;;;;;5440374;26;19937;-52
2024/04/16 07:27:31;;;;;;;;;;;13.20;92.40;;;;;;5438912;26;19945;-48
2024/04/16 07:29:57;;;;;;;;;;;13.20;92.30;;;;;;5410093;26;20327;-52
2024/04/16 07:32:22;;;;;;;;;;;13.20;92.40;;;;;;5440735;26;19937;-52
2024/04/16 07:34:48;;;;;;;;;;;13.20;92.50;;;;;;5431640;26;19932;-52
2024/04/16 07:37:13;;;;;;;;;;;13.20;92.50;;;;;;5430869;26;19968;-53
2024/04/16 07:39:39;;;;;;;;;;;13.30;92.50;;;;;;5430526;26;19929;-53
2024/04/16 07:42:04;;;;;;;;;;;13.20;92.50;;;;;;5443130;26;19936;-52
2024/04/16 07:44:30;;;;;;;;;;;13.20;92.50;;;;;;5437813;26;19936;-53
2024/04/16 07:46:58;;;;;;;;;;;13.30;92.60;;;;;;5396975;26;19941;-49
2024/04/16 07:49:23;;;;;;;;;;;13.30;92.60;;;;;;5443119;26;20268;-54
2024/04/16 07:51:49;;;;;;;;;;;13.30;92.50;;;;;;5426579;26;20000;-53
2024/04/16 07:54:14;;;;;;;;;;;13.30;92.50;;;;;;5431325;26;19932;-53
2024/04/16 07:56:40;;;;;;;;;;;13.30;92.60;;;;;;5413336;26;20260;-53
2024/04/16 07:59:05;;;;;;;;;;;13.30;92.50;;;;;;5443925;26;20393;-53
2024/04/16 08:01:31;;;;;;;;;;;13.30;92.60;;;;;;5409501;26;19937;-53
2024/04/16 08:03:56;;;;;;;;;;;13.30;92.60;;;;;;5442130;26;20389;-52
2024/04/16 08:06:22;;;;;;;;;;;13.30;92.60;;;;;;5423602;26;19929;-52
2024/04/16 08:08:50;;;;;;;;;;;13.40;92.60;;;;;;5442066;26;19998;-52
2024/04/16 08:11:16;;;;;;;;;;;13.30;92.60;;;;;;5445276;26;19935;-53
2024/04/16 08:13:42;;;;;;;;;;;13.40;92.70;;;;;;5433086;26;19928;-53
2024/04/16 08:16:07;;;;;;;;;;;13.40;92.70;;;;;;5444765;26;19999;-49
2024/04/16 08:18:33;;;;;;;;;;;13.40;92.60;;;;;;5419919;26;19940;-50
2024/04/16 08:20:58;;;;;;;;;;;13.40;92.50;;;;;;5421361;26;20266;-48
2024/04/16 08:23:24;;;;;;;;;;;13.50;92.40;;;;;;5432558;26;19928;-51
2024/04/16 08:26:03;;;;;;;;;;;13.50;92.30;;;;;;5432928;26;19941;-48
2024/04/16 08:28:30;;;;;;;;;;;13.50;92.20;;;;;;5436206;26;19995;-51
2024/04/16 08:30:55;;;;;;;;;;;13.50;92.20;;;;;;5433392;26;20450;-52
2024/04/16 08:33:21;;;;;;;;;;;13.50;92.00;;;;;;5442669;26;19997;-49
2024/04/16 08:35:47;;;;;;;;;;;13.50;92.00;;;;;;5438471;26;20004;-50
2024/04/16 08:38:13;;;;;;;;;;;13.50;92.20;;;;;;5434038;26;19929;-49
2024/04/16 08:40:39;;;;;;;;;;;13.50;92.70;;;;;;5438056;26;20005;-49
2024/04/16 08:43:05;;;;;;;;;;;13.60;92.20;;;;;;5425408;26;19936;-49
2024/04/16 08:45:30;;;;;;;;;;;13.50;92.10;;;;;;5413792;26;19946;-49
2024/04/16 08:47:57;;;;;;;;;;;13.60;92.10;;;;;;5423277;26;19935;-49
2024/04/16 08:50:23;;;;;;;;;;;13.60;92.20;;;;;;5434553;26;19944;-51
2024/04/16 08:52:49;;;;;;;;;;;13.60;92.30;;;;;;5421336;26;20458;-48
2024/04/16 08:55:16;;;;;;;;;;;13.60;92.00;;;;;;5431386;26;19944;-48
2024/04/16 08:57:41;;;;;;;;;;;13.60;91.90;;;;;;5397621;26;19937;-49
2024/04/16 09:00:08;;;;;;;;;;;13.60;92.00;;;;;;5403921;26;20008;-49
2024/04/16 09:02:34;;;;;;;;;;;13.60;91.80;;;;;;5423372;26;19943;-48
2024/04/16 09:05:02;;;;;;;;;;;13.60;91.80;;;;;;5417941;26;20429;-49
2024/04/16 09:07:28;;;;;;;;;;;13.60;92.00;;;;;;5411721;26;19929;-49
2024/04/16 09:09:54;;;;;;;;;;;13.70;92.10;;;;;;5404552;26;19929;-48
2024/04/16 09:12:19;;;;;;;;;;;13.70;92.10;;;;;;5404897;26;19929;-49
2024/04/16 09:14:45;;;;;;;;;;;13.70;91.90;;;;;;5418309;26;19929;-49
2024/04/16 09:17:14;;;;;;;;;;;13.70;92.00;;;;;;5418689;26;19929;-49
2024/04/16 09:19:41;;;;;;;;;;;13.70;92.00;;;;;;5418851;26;20372;-52
2024/04/16 09:22:07;;;;;;;;;;;13.80;92.00;;;;;;5413550;26;20047;-48
2024/04/16 09:24:32;;;;;;;;;;;13.80;91.80;;;;;;5423655;26;19940;-50
2024/04/16 09:26:59;;;;;;;;;;;13.80;91.60;;;;;;5419797;26;19955;-49
2024/04/16 09:29:28;;;;;;;;;;;13.80;91.70;;;;;;5412941;26;19936;-49
2024/04/16 09:31:57;;;;;;;;;;;13.80;91.70;;;;;;5412781;26;19929;-49
2024/04/16 09:34:23;;;;;;;;;;;13.80;91.50;;;;;;5414998;26;19969;-51
2024/04/16 09:36:48;;;;;;;;;;;13.80;91.60;;;;;;5413958;26;19933;-50
2024/04/16 09:39:21;;;;;;;;;;;13.80;91.40;;;;;;5417361;26;19966;-48
2024/04/16 09:41:50;;;;;;;;;;;13.90;91.30;;;;;;5414022;26;19998;-48
2024/04/16 09:44:16;;;;;;;;;;;13.90;91.30;;;;;;5415648;26;19929;-48
2024/04/16 09:46:45;;;;;;;;;;;13.80;91.50;;;;;;5396945;26;19929;-48
2024/04/16 09:49:12;;;;;;;;;;;13.90;91.30;;;;;;5407584;26;20376;-48
2024/04/16 09:51:38;;;;;;;;;;;13.90;91.30;;;;;;5412944;26;19995;-49
2024/04/16 09:54:05;;;;;;;;;;;13.90;91.30;;;;;;5431460;26;19937;-48
2024/04/16 09:56:33;;;;;;;;;;;13.90;91.20;;;;;;5430711;26;19961;-49
2024/04/16 09:58:59;;;;;;;;;;;13.90;91.40;;;;;;5401099;26;19965;-48
2024/04/16 10:01:24;;;;;;;;;;;13.90;91.40;;;;;;5409564;26;19929;-48
2024/04/16 10:03:52;;;;;;;;;;;13.90;91.30;;;;;;5416548;26;19975;-48
2024/04/16 10:06:17;;;;;;;;;;;13.90;91.10;;;;;;5408653;26;20011;-48
2024/04/16 10:08:43;;;;;;;;;;;13.90;91.10;;;;;;5424749;26;19938;-49
2024/04/16 10:11:09;;;;;;;;;;;13.90;91.00;;;;;;5438090;26;19929;-49
2024/04/16 10:13:37;;;;;;;;;;;13.90;90.80;;;;;;5429255;26;19928;-49
2024/04/16 10:16:08;;;;;;;;;;;13.90;90.90;;;;;;5455995;26;19940;-48
2024/04/16 10:18:34;;;;;;;;;;;13.90;90.60;;;;;;5421946;26;19936;-48
2024/04/16 10:21:00;;;;;;;;;;;14.00;90.70;;;;;;5430946;26;19929;-48
2024/04/16 10:23:28;;;;;;;;;;;14.00;90.80;;;;;;5443896;26;19929;-48
2024/04/16 10:25:54;;;;;;;;;;;14.00;90.80;;;;;;5443994;26;19928;-48
2024/04/16 10:28:23;;;;;;;;;;;14.00;90.40;;;;;;5419318;26;20376;-49
2024/04/16 10:30:57;;;;;;;;;;;14.00;90.10;;;;;;5411663;26;19936;-48
2024/04/16 10:33:26;;;;;;;;;;;14.00;90.10;;;;;;5455565;26;19936;-49
2024/04/16 10:35:53;;;;;;;;;;;14.00;90.30;;;;;;5425680;26;20383;-49
2024/04/16 10:38:18;;;;;;;;;;;14.00;90.50;;;;;;5417381;26;19999;-49
2024/04/16 10:40:52;;;;;;;;;;;14.00;91.00;;;;;;5400221;26;19937;-48
2024/04/16 10:43:20;;;;;;;;;;;14.00;90.70;;;;;;5416587;26;19937;-49
2024/04/16 10:45:46;;;;;;;;;;;14.00;90.50;;;;;;5420278;26;19936;-48
2024/04/16 10:48:12;;;;;;;;;;;14.00;90.70;;;;;;5438421;26;20267;-49
2024/04/16 10:50:38;;;;;;;;;;;14.00;90.50;;;;;;5424033;26;20340;-49
2024/04/16 10:53:09;;;;;;;;;;;14.00;91.00;;;;;;5420861;26;19929;-48
2024/04/16 10:55:35;;;;;;;;;;;14.10;91.00;;;;;;5427770;26;19936;-49
2024/04/16 10:58:01;;;;;;;;;;;14.10;91.20;;;;;;5455267;26;19936;-48
2024/04/16 11:00:26;;;;;;;;;;;14.10;91.00;;;;;;5436491;26;19936;-49
2024/04/16 11:02:53;;;;;;;;;;;14.10;90.70;;;;;;5446836;26;20359;-48
2024/04/16 11:05:21;;;;;;;;;;;14.10;90.80;;;;;;5425379;26;19928;-48
2024/04/16 11:07:47;;;;;;;;;;;14.10;90.90;;;;;;5426368;26;20005;-50
2024/04/16 11:10:12;;;;;;;;;;;14.10;90.60;;;;;;5441684;26;19932;-51
2024/04/16 11:12:38;;;;;;;;;;;14.10;90.20;;;;;;5434047;26;19929;-51
2024/04/16 11:15:04;;;;;;;;;;;14.10;90.10;;;;;;5421977;26;19928;-51
2024/04/16 11:17:30;;;;;;;;;;;14.20;90.10;;;;;;5428262;26;19929;-53
2024/04/16 11:19:56;;;;;;;;;;;14.10;90.20;;;;;;5449118;26;20299;-50
2024/04/16 11:22:21;;;;;;;;;;;14.10;89.30;;;;;;5435002;26;19979;-53
2024/04/16 11:24:47;;;;;;;;;;;14.10;89.10;;;;;;5446338;26;19941;-50
2024/04/16 11:27:12;;;;;;;;;;;14.20;89.50;;;;;;5443121;26;20000;-52
2024/04/16 11:29:49;;;;;;;;;;;14.20;89.60;;;;;;5458170;26;19944;-52
2024/04/16 11:32:15;;;;;;;;;;;14.20;89.70;;;;;;5458438;26;19929;-53
2024/04/16 11:34:44;;;;;;;;;;;14.20;89.50;;;;;;5446145;26;19961;-52
2024/04/16 11:37:10;;;;;;;;;;;14.10;89.40;;;;;;5446973;26;20015;-51
2024/04/16 11:39:40;;;;;;;;;;;14.10;90.20;;;;;;5423507;26;19929;-53
2024/04/16 11:42:07;;;;;;;;;;;14.20;90.40;;;;;;5449177;26;20305;-52
2024/04/16 11:44:33;;;;;;;;;;;14.20;90.70;;;;;;5458134;26;20002;-51
2024/04/16 11:46:58;;;;;;;;;;;14.20;91.20;;;;;;5454846;26;19932;-53
2024/04/16 11:49:24;;;;;;;;;;;14.20;91.40;;;;;;5436197;26;20264;-52
2024/04/16 11:51:50;;;;;;;;;;;14.20;91.30;;;;;;5457783;26;20253;-49
2024/04/16 11:54:15;;;;;;;;;;;14.20;90.80;;;;;;5443346;26;19936;-52
2024/04/16 11:56:41;;;;;;;;;;;14.20;90.50;;;;;;5449187;26;19933;-53
2024/04/16 11:59:06;;;;;;;;;;;14.30;91.00;;;;;;5457961;26;19956;-53
2024/04/16 12:01:32;;;;;;;;;;;14.20;90.80;;;;;;5457720;26;19944;-50
2024/04/16 12:03:58;;;;;;;;;;;14.30;90.80;;;;;;5457588;26;19935;-52
2024/04/16 12:06:23;;;;;;;;;;;14.20;90.90;;;;;;5433818;26;19979;-51
2024/04/16 12:08:49;;;;;;;;;;;14.30;91.10;;;;;;5442015;26;20355;-52
2024/04/16 12:11:15;;;;;;;;;;;14.30;91.20;;;;;;5449603;26;19929;-52
2024/04/16 12:13:41;;;;;;;;;;;14.30;91.20;;;;;;5432893;26;20356;-53
2024/04/16 12:16:06;;;;;;;;;;;14.30;91.20;;;;;;5457714;26;19938;-48
2024/04/16 12:18:32;;;;;;;;;;;14.30;91.10;;;;;;5433211;26;19928;-50
2024/04/16 12:20:57;;;;;;;;;;;14.40;91.20;;;;;;5423471;26;19929;-49
2024/04/16 12:23:23;;;;;;;;;;;14.30;90.80;;;;;;5421585;26;20027;-49
2024/04/16 12:25:48;;;;;;;;;;;14.40;90.90;;;;;;5438856;26;19997;-49
2024/04/16 12:28:14;;;;;;;;;;;14.40;90.80;;;;;;5420564;26;19994;-50
2024/04/16 12:30:39;;;;;;;;;;;14.40;90.70;;;;;;5404665;26;19929;-49
2024/04/16 12:33:05;;;;;;;;;;;14.40;90.70;;;;;;5401667;26;19929;-52
2024/04/16 12:35:30;;;;;;;;;;;14.40;90.90;;;;;;5404619;26;19936;-52
2024/04/16 12:37:56;;;;;;;;;;;14.40;90.90;;;;;;5419637;26;19937;-52
2024/04/16 12:40:21;;;;;;;;;;;14.40;91.20;;;;;;5420192;26;19929;-52
2024/04/16 12:42:47;;;;;;;;;;;14.40;90.90;;;;;;5419523;26;19936;-52
2024/04/16 12:45:12;;;;;;;;;;;14.40;91.10;;;;;;5419491;26;19929;-50
2024/04/16 12:47:38;;;;;;;;;;;14.40;91.20;;;;;;5421185;26;20264;-52
2024/04/16 12:50:04;;;;;;;;;;;14.40;91.10;;;;;;5419360;26;20265;-52
2024/04/16 12:52:30;;;;;;;;;;;14.40;91.00;;;;;;5419648;26;19929;-51
2024/04/16 12:54:55;;;;;;;;;;;14.40;90.60;;;;;;5416639;26;19962;-50
2024/04/16 12:57:21;;;;;;;;;;;14.40;90.70;;;;;;5403266;26;19936;-53
2024/04/16 12:59:46;;;;;;;;;;;14.40;90.70;;;;;;5413367;26;19969;-51
2024/04/16 13:02:12;;;;;;;;;;;14.40;90.50;;;;;;5397968;26;19937;-51
2024/04/16 13:04:37;;;;;;;;;;;14.40;90.40;;;;;;5416632;26;19948;-50
2024/04/16 13:07:04;;;;;;;;;;;14.40;90.70;;;;;;5422208;26;20002;-52
2024/04/16 13:09:30;;;;;;;;;;;14.40;90.80;;;;;;5418353;26;19936;-49
2024/04/16 13:11:56;;;;;;;;;;;14.40;90.70;;;;;;5416254;26;20345;-53
2024/04/16 13:14:21;;;;;;;;;;;14.50;91.10;;;;;;5444042;26;19939;-53
2024/04/16 13:16:47;;;;;;;;;;;14.50;91.30;;;;;;5432090;26;20261;-52
2024/04/16 13:19:19;;;;;;;;;;;14.50;91.50;;;;;;5442367;26;19936;-48
2024/04/16 13:21:45;;;;;;;;;;;14.50;92.00;;;;;;5432344;26;19935;-48
2024/04/16 13:24:10;;;;;;;;;;;14.50;91.70;;;;;;5456977;26;19928;-48
2024/04/16 13:26:36;;;;;;;;;;;14.50;91.50;;;;;;5421528;26;19929;-47
2024/04/16 13:29:02;;;;;;;;;;;14.40;90.60;;;;;;5439959;26;19975;-47
2024/04/16 13:31:28;;;;;;;;;;;14.30;90.50;;;;;;5409706;26;19928;-47
2024/04/16 13:33:53;;;;;;;;;;;14.30;90.20;;;;;;5432347;26;20322;-48
2024/04/16 13:36:19;;;;;;;;;;;14.20;91.30;;;;;;5456645;26;20337;-46
2024/04/16 13:38:44;;;;;;;;;;;14.30;91.80;;;;;;5432756;26;20527;-47
2024/04/16 13:41:11;;;;;;;;;;;14.30;92.00;;;;;;5444343;26;19933;-47
2024/04/16 13:43:36;;;;;;;;;;;14.40;90.40;;;;;;5444474;26;19929;-47
2024/04/16 13:46:02;;;;;;;;;;;14.40;90.50;;;;;;5448026;26;19997;-47
2024/04/16 13:48:27;;;;;;;;;;;14.50;91.10;;;;;;5439568;26;20384;-47
2024/04/16 13:50:53;;;;;;;;;;;14.60;91.10;;;;;;5440766;26;19929;-48
2024/04/16 13:53:18;;;;;;;;;;;14.70;89.70;;;;;;5444777;26;19929;-47
2024/04/16 13:55:44;;;;;;;;;;;14.80;90.90;;;;;;5443228;26;19936;-47
2024/04/16 13:58:09;;;;;;;;;;;14.90;90.30;;;;;;5444693;26;19929;-48
2024/04/16 14:00:35;;;;;;;;;;;14.90;90.10;;;;;;5423256;26;19936;-48
2024/04/16 14:03:00;;;;;;;;;;;14.90;88.60;;;;;;5421428;26;19943;-47
2024/04/16 14:05:26;;;;;;;;;;;14.90;89.70;;;;;;5442529;26;19929;-47
2024/04/16 14:07:53;;;;;;;;;;;14.80;86.70;;;;;;5442851;26;19936;-47
2024/04/16 14:10:19;;;;;;;;;;;14.60;87.40;;;;;;5434178;26;20001;-50
2024/04/16 14:12:44;;;;;;;;;;;14.60;88.60;;;;;;5438028;26;19928;-47